Time;durP1;ratioP1;P1;durP2;ratioP2;P2;SDS_P1;SDS_P2;PMS_P1;PMS_P2;Temp;Humidity;BMP_temperature;BMP_pressure;BME280_temperature;BME280_humidity;BME280_pressure;Samples;Min_cycle;Max_cycle;Signal;HPM_P1;HPM_P2
2021/05/18 00:00:14;;;;;;;21.27;15.18;;;;;;;16.53;nan;100226.38;5010333;28;20112;-79
2021/05/18 00:02:40;;;;;;;16.05;12.73;;;;;;;16.38;nan;100232.84;5008751;28;20057;-79
2021/05/18 00:05:08;;;;;;;16.38;12.07;;;;;;;16.16;nan;100231.84;5008692;28;20490;-79
2021/05/18 00:07:35;;;;;;;16.90;12.35;;;;;;;16.12;nan;100233.25;5009738;28;20034;-79
2021/05/18 00:12:45;;;;;;;18.15;14.23;;;;;;;16.09;nan;100235.31;5009824;28;20037;-79
2021/05/18 00:15:14;;;;;;;18.35;13.63;;;;;;;15.93;nan;100240.06;4991621;28;20057;-79
2021/05/18 00:17:40;;;;;;;21.63;15.32;;;;;;;15.89;nan;100228.75;5010037;28;20109;-79
2021/05/18 00:20:09;;;;;;;19.25;15.40;;;;;;;16.16;nan;100235.44;5009935;28;20125;-79
2021/05/18 00:22:34;;;;;;;19.60;15.23;;;;;;;15.94;nan;100242.56;4992076;28;20084;-79
2021/05/18 00:25:00;;;;;;;20.35;14.43;;;;;;;16.14;nan;100240.19;5008967;28;20029;-78
2021/05/18 00:27:29;;;;;;;24.58;15.05;;;;;;;16.35;nan;100231.34;4992841;28;20038;-78
2021/05/18 00:29:54;;;;;;;19.80;15.75;;;;;;;16.39;nan;100242.66;5009980;28;20048;-78
2021/05/18 00:32:19;;;;;;;18.23;14.80;;;;;;;16.34;nan;100240.50;5010005;28;20037;-78
2021/05/18 00:34:44;;;;;;;21.52;15.35;;;;;;;16.30;nan;100242.75;5009822;28;20030;-79
2021/05/18 00:37:10;;;;;;;17.58;13.15;;;;;;;16.34;nan;100254.06;5009868;28;20501;-78
2021/05/18 00:39:35;;;;;;;24.95;16.50;;;;;;;16.36;nan;100246.59;5009689;28;20033;-79
2021/05/18 00:42:01;;;;;;;20.75;15.90;;;;;;;16.42;nan;100251.28;5009510;28;20036;-78
2021/05/18 00:44:26;;;;;;;22.02;16.48;;;;;;;16.35;nan;100249.50;5009509;28;20398;-79
2021/05/18 00:46:52;;;;;;;20.13;14.50;;;;;;;16.24;nan;100248.91;5010283;28;20034;-78
2021/05/18 00:49:17;;;;;;;20.75;15.15;;;;;;;16.22;nan;100255.53;5009606;28;20112;-78
2021/05/18 00:51:43;;;;;;;20.70;16.05;;;;;;;16.12;nan;100246.84;5009495;28;20545;-78
2021/05/18 00:54:17;;;;;;;24.98;15.90;;;;;;;16.05;nan;100250.28;5009622;28;20390;-79
2021/05/18 00:59:30;;;;;;;22.52;16.92;;;;;;;15.90;nan;100257.53;4988085;28;20049;-78
2021/05/18 01:01:55;;;;;;;19.88;15.32;;;;;;;15.86;nan;100258.94;5009819;28;20034;-79
2021/05/18 01:04:22;;;;;;;26.10;17.33;;;;;;;15.84;nan;100261.81;5009428;28;20037;-79
2021/05/18 01:06:48;;;;;;;27.48;19.38;;;;;;;15.81;nan;100267.59;5009452;28;20121;-79
2021/05/18 01:09:14;;;;;;;27.00;17.25;;;;;;;15.68;nan;100263.81;5009417;28;20097;-79
2021/05/18 01:11:42;;;;;;;29.02;19.33;;;;;;;15.74;nan;100268.50;5009898;28;20514;-78
2021/05/18 01:14:16;;;;;;;23.90;17.33;;;;;;;15.58;nan;100266.72;4991429;28;20085;-79
2021/05/18 01:16:45;;;;;;;27.63;17.48;;;;;;;15.55;nan;100265.22;5009540;28;20034;-79
2021/05/18 01:19:12;;;;;;;25.50;18.65;;;;;;;15.45;nan;100274.59;5009098;28;20037;-79
2021/05/18 01:21:38;;;;;;;28.80;20.33;;;;;;;15.51;nan;100268.47;5009402;28;20041;-78
2021/05/18 01:24:05;;;;;;;26.88;17.98;;;;;;;15.57;nan;100273.16;5009217;28;20072;-78
2021/05/18 01:26:33;;;;;;;20.88;15.23;;;;;;;15.50;nan;100272.19;4993853;28;20508;-78
2021/05/18 01:28:58;;;;;;;33.25;19.40;;;;;;;15.49;nan;100270.50;5012921;28;20034;-78
2021/05/18 01:31:25;;;;;;;25.15;17.77;;;;;;;15.39;nan;100277.00;5012999;28;20025;-79
2021/05/18 01:33:53;;;;;;;30.67;19.67;;;;;;;15.45;nan;100280.00;5013119;28;20113;-80
2021/05/18 01:36:20;;;;;;;27.65;19.17;;;;;;;15.50;nan;100281.16;5013075;28;20486;-79
2021/05/18 01:38:53;;;;;;;28.52;18.98;;;;;;;15.49;nan;100286.75;5011521;28;20034;-79
2021/05/18 01:44:04;;;;;;;28.88;18.17;;;;;;;15.10;nan;100291.22;5013366;28;20096;-79
2021/05/18 01:46:30;;;;;;;29.40;19.20;;;;;;;15.32;nan;100291.44;5011343;28;20029;-79
2021/05/18 01:49:01;;;;;;;25.55;18.38;;;;;;;15.39;nan;100292.41;5012961;28;20037;-79
2021/05/18 01:51:34;;;;;;;31.17;19.33;;;;;;;15.38;nan;100290.72;5012787;28;20041;-78
2021/05/18 01:54:05;;;;;;;29.33;19.67;;;;;;;15.42;nan;100296.63;5012493;28;20058;-79
2021/05/18 01:59:05;;;;;;;31.80;19.77;;;;;;;15.47;nan;100295.09;5012573;28;20041;-78
2021/05/18 02:01:31;;;;;;;24.67;16.73;;;;;;;15.42;nan;100296.63;4994618;28;20437;-78
2021/05/18 02:03:56;;;;;;;30.50;20.45;;;;;;;15.42;nan;100299.34;5011175;28;20032;-78
2021/05/18 02:06:22;;;;;;;27.45;17.58;;;;;;;15.29;nan;100297.22;5012962;28;20486;-78
2021/05/18 02:08:47;;;;;;;25.75;18.55;;;;;;;15.35;nan;100296.50;5012632;28;20030;-79
2021/05/18 02:11:13;;;;;;;27.77;17.52;;;;;;;15.29;nan;100298.06;5012241;28;20029;-78
2021/05/18 02:13:44;;;;;;;28.30;19.80;;;;;;;15.25;nan;100290.47;5012289;28;20041;-79
2021/05/18 02:16:12;;;;;;;30.20;20.23;;;;;;;15.23;nan;100298.75;5012586;28;20038;-79
2021/05/18 02:18:58;;;;;;;27.58;18.08;;;;;;;15.16;nan;100298.63;5012158;28;20040;-78
2021/05/18 02:27:24;;;;;;;25.02;16.83;;;;;;;15.23;nan;100308.75;4951458;29;20050;-78
2021/05/18 02:29:50;;;;;;;30.73;21.58;;;;;;;15.03;nan;100297.50;4999585;28;20042;-78
2021/05/18 02:32:15;;;;;;;36.05;22.48;;;;;;;15.09;nan;100294.06;5012214;28;20030;-78
2021/05/18 02:34:40;;;;;;;38.13;24.05;;;;;;;15.16;nan;100301.34;4994033;28;20030;-79
2021/05/18 02:37:06;;;;;;;29.15;18.85;;;;;;;14.80;nan;100309.09;5011862;28;20028;-79
2021/05/18 02:39:31;;;;;;;24.17;19.00;;;;;;;15.00;nan;100306.84;5011830;28;20116;-79
2021/05/18 02:41:57;;;;;;;25.00;18.15;;;;;;;14.90;nan;100307.00;5011874;28;20026;-79
2021/05/18 02:49:31;;;;;;;40.10;23.38;;;;;;;15.07;nan;100310.50;5011924;28;20431;-79
2021/05/18 02:51:57;;;;;;;40.90;24.13;;;;;;;15.13;nan;100307.09;5011629;28;20034;-78
2021/05/18 02:54:25;;;;;;;30.65;20.30;;;;;;;15.14;nan;100314.19;5013441;28;20033;-78
2021/05/18 02:56:58;;;;;;;26.33;19.45;;;;;;;15.09;nan;100308.50;5010104;28;20075;-79
2021/05/18 02:59:23;;;;;;;26.27;18.55;;;;;;;15.01;nan;100313.09;5011328;28;20041;-78
2021/05/18 03:01:57;;;;;;;22.40;16.67;;;;;;;15.17;nan;100316.56;5011312;28;20026;-78
2021/05/18 03:04:23;;;;;;;28.00;20.27;;;;;;;15.03;nan;100322.72;5011340;28;20052;-78
2021/05/18 03:06:49;;;;;;;28.42;20.23;;;;;;;15.05;nan;100314.41;5011482;28;20458;-79
2021/05/18 03:09:16;;;;;;;27.00;18.40;;;;;;;15.12;nan;100324.38;5011047;28;20041;-79
2021/05/18 03:11:43;;;;;;;29.27;20.50;;;;;;;15.15;nan;100321.31;5011284;28;20406;-79
2021/05/18 03:14:09;;;;;;;35.65;23.95;;;;;;;15.17;nan;100321.97;5011087;28;20061;-79
2021/05/18 03:16:36;;;;;;;29.33;20.80;;;;;;;15.35;nan;100323.59;5011961;28;20034;-79
2021/05/18 03:19:03;;;;;;;32.08;20.67;;;;;;;15.10;nan;100329.13;5010690;28;20137;-78
2021/05/18 03:21:28;;;;;;;28.25;20.83;;;;;;;15.16;nan;100324.88;5011664;28;20064;-78
2021/05/18 03:23:54;;;;;;;28.90;19.80;;;;;;;15.10;nan;100331.00;5011059;28;20026;-78
2021/05/18 03:26:19;;;;;;;25.65;19.13;;;;;;;15.28;nan;100328.03;5011162;28;20034;-79
2021/05/18 03:28:47;;;;;;;25.27;17.98;;;;;;;15.06;nan;100330.50;5010618;28;20022;-78
2021/05/18 03:36:40;;;;;;;25.67;18.02;;;;;;;15.47;nan;100333.03;5010754;28;20126;-79
2021/05/18 03:39:06;;;;;;;23.85;17.77;;;;;;;15.42;nan;100327.28;5011107;28;20481;-79
2021/05/18 03:41:42;;;;;;;23.35;16.35;;;;;;;15.61;nan;100329.56;4992557;28;20025;-79
2021/05/18 03:44:19;;;;;;;22.13;16.60;;;;;;;15.49;nan;100336.41;5010590;28;20046;-79
2021/05/18 04:18:25;;;;;;;22.48;18.00;;;;;;;15.94;nan;100352.94;5010364;28;20040;-78
2021/05/18 04:21:00;;;;;;;23.55;16.90;;;;;;;16.11;nan;100350.94;4992063;28;20034;-79
2021/05/18 04:43:04;;;;;;;31.38;21.20;;;;;;;16.24;nan;100367.44;5009650;28;20490;-78
2021/05/18 05:08:47;;;;;;;38.40;21.70;;;;;;;16.53;nan;100383.00;5025055;28;20119;-79
2021/05/18 05:16:25;;;;;;;30.52;21.13;;;;;;;16.58;nan;100386.00;5018957;28;20040;-79
2021/05/18 05:18:50;;;;;;;22.40;16.52;;;;;;;16.57;nan;100381.59;5014719;28;20152;-79
2021/05/18 05:21:19;;;;;;;26.13;18.73;;;;;;;16.60;nan;100383.94;5021222;28;20397;-79
2021/05/18 05:23:44;;;;;;;31.08;21.35;;;;;;;16.68;nan;100383.88;5007379;28;20491;-79
2021/05/18 05:26:09;;;;;;;24.17;17.25;;;;;;;16.36;nan;100387.72;5025538;28;20753;-79
2021/05/18 05:28:35;;;;;;;32.22;20.45;;;;;;;16.61;nan;100390.22;5026068;28;20034;-79
2021/05/18 05:31:00;;;;;;;26.17;18.00;;;;;;;16.81;nan;100399.56;5025821;28;20026;-80
2021/05/18 05:33:25;;;;;;;27.55;19.60;;;;;;;16.99;nan;100396.50;5008237;28;20830;-79
2021/05/18 05:35:58;;;;;;;28.33;18.65;;;;;;;16.84;nan;100398.34;5026786;28;20030;-80
2021/05/18 05:38:24;;;;;;;27.58;19.65;;;;;;;16.99;nan;100393.78;5008432;28;20466;-79
2021/05/18 05:40:51;;;;;;;28.70;18.60;;;;;;;16.87;nan;100389.84;5027404;28;20040;-79
2021/05/18 05:43:16;;;;;;;26.55;17.65;;;;;;;17.14;nan;100399.19;5025667;28;20453;-79
2021/05/18 05:45:42;;;;;;;22.63;17.05;;;;;;;17.10;nan;100397.91;5025439;28;20064;-79
2021/05/18 05:48:07;;;;;;;27.25;19.55;;;;;;;16.87;nan;100406.13;5025606;28;20029;-79
2021/05/18 05:50:33;;;;;;;27.50;19.05;;;;;;;16.98;nan;100409.22;5025110;28;20033;-79
2021/05/18 05:52:59;;;;;;;19.83;15.35;;;;;;;17.11;nan;100400.44;5025185;28;20032;-79
2021/05/18 05:55:24;;;;;;;31.80;20.17;;;;;;;17.03;nan;100414.09;5006049;28;20061;-79
2021/05/18 05:57:49;;;;;;;19.67;14.68;;;;;;;17.11;nan;100414.03;5025188;28;20056;-79
2021/05/18 06:00:15;;;;;;;24.33;17.63;;;;;;;17.13;nan;100416.53;5026443;28;20393;-78
2021/05/18 06:02:41;;;;;;;23.42;16.83;;;;;;;16.62;nan;100421.75;5008918;28;20021;-79
2021/05/18 06:05:13;;;;;;;21.48;15.43;;;;;;;16.34;nan;100425.03;5007203;28;20034;-79
2021/05/18 06:07:39;;;;;;;26.63;17.08;;;;;;;16.68;nan;100421.03;5007735;28;20060;-79
2021/05/18 06:10:13;;;;;;;23.23;17.13;;;;;;;16.55;nan;100418.94;5025806;28;20022;-79
2021/05/18 06:13:10;;;;;;;26.05;17.45;;;;;;;16.62;nan;100424.47;5009701;28;20037;-79
2021/05/18 06:42:41;;;;;;;18.23;14.50;;;;;;;17.26;nan;100460.22;5016321;28;20057;-80
2021/05/18 06:47:51;;;;;;;22.13;16.35;;;;;;;17.90;nan;100462.38;5029856;28;20041;-79
2021/05/18 06:52:44;;;;;;;17.15;14.90;;;;;;;18.03;nan;100470.72;5027986;28;20057;-79
2021/05/18 06:55:15;;;;;;;17.75;14.18;;;;;;;18.11;nan;100467.03;5010470;28;20683;-79
2021/05/18 06:57:45;;;;;;;21.45;14.48;;;;;;;17.76;nan;100468.66;5026804;28;20501;-79
2021/05/18 07:00:14;;;;;;;16.33;13.55;;;;;;;17.68;nan;100470.44;5010472;28;20041;-80
2021/05/18 07:02:43;;;;;;;17.08;13.45;;;;;;;17.55;nan;100472.97;5009889;28;20144;-79
2021/05/18 07:05:17;;;;;;;17.80;13.85;;;;;;;17.69;nan;100474.88;5010928;28;20022;-79
2021/05/18 07:07:44;;;;;;;16.67;12.02;;;;;;;17.81;nan;100477.13;5027409;28;20040;-79
2021/05/18 07:10:10;;;;;;;12.10;10.48;;;;;;;17.27;nan;100483.66;5011159;28;20568;-79
2021/05/18 07:12:36;;;;;;;15.93;10.95;;;;;;;17.16;nan;100479.50;5027908;28;20090;-79
2021/05/18 07:15:04;;;;;;;13.02;11.27;;;;;;;17.26;nan;100489.28;5027797;28;20389;-79
2021/05/18 07:17:29;;;;;;;12.65;11.15;;;;;;;17.65;nan;100486.28;5009635;28;20549;-79
2021/05/18 07:19:55;;;;;;;15.98;10.38;;;;;;;18.29;nan;100486.50;5009580;28;20136;-81
2021/05/18 07:22:20;;;;;;;14.50;10.10;;;;;;;17.94;nan;100490.03;5009130;28;20466;-79
2021/05/18 07:24:45;;;;;;;11.98;10.20;;;;;;;18.15;nan;100495.53;5027333;28;20030;-80
2021/05/18 07:27:10;;;;;;;12.02;10.25;;;;;;;18.22;nan;100499.19;5011010;28;20437;-80
2021/05/18 07:29:36;;;;;;;12.80;10.10;;;;;;;18.44;nan;100496.50;5026709;28;20057;-80
2021/05/18 07:32:02;;;;;;;11.90;9.75;;;;;;;18.38;nan;100503.56;5010487;28;20022;-80
2021/05/18 07:34:27;;;;;;;10.40;9.30;;;;;;;18.51;nan;100494.69;5028076;28;20453;-80
2021/05/18 07:36:53;;;;;;;10.93;8.73;;;;;;;18.57;nan;100499.34;5009690;28;20505;-80
2021/05/18 07:39:18;;;;;;;10.35;8.68;;;;;;;18.52;nan;100507.28;5026917;28;20114;-80
2021/05/18 07:41:44;;;;;;;9.77;8.05;;;;;;;18.82;nan;100506.16;5027527;28;20393;-80
2021/05/18 07:44:09;;;;;;;8.43;7.30;;;;;;;18.68;nan;100503.47;5009802;28;20044;-80
2021/05/18 07:46:39;;;;;;;8.15;6.68;;;;;;;18.71;nan;100512.06;5030785;28;20029;-80
2021/05/18 08:05:29;;;;;;;12.82;6.97;;;;;;;18.99;nan;100505.88;5026979;28;20083;-80
2021/05/18 08:07:55;;;;;;;9.32;7.03;;;;;;;18.59;nan;100506.31;4995784;28;20070;-80
2021/05/18 08:12:49;;;;;;;8.98;6.97;;;;;;;18.61;nan;100517.00;5027812;28;20044;-80
2021/05/18 08:18:08;;;;;;;7.88;7.03;;;;;;;18.88;nan;100509.09;5027144;28;20409;-81
2021/05/18 10:37:43;;;;;;;3.28;2.58;;;;;;;21.04;nan;100573.50;4978679;28;20472;-79
2021/05/18 10:40:26;;;;;;;3.45;2.53;;;;;;;20.60;nan;100572.13;4989096;28;20038;-79
2021/05/18 10:43:10;;;;;;;3.13;2.25;;;;;;;19.72;nan;100563.72;4994304;28;20483;-79
2021/05/18 10:45:56;;;;;;;2.60;2.35;;;;;;;20.21;nan;100568.19;5011573;28;20045;-79
2021/05/18 10:48:37;;;;;;;2.80;2.55;;;;;;;19.71;nan;100575.66;5003823;28;20073;-79
2021/05/18 10:51:21;;;;;;;3.22;2.83;;;;;;;18.59;nan;100582.56;5027820;28;20075;-80
2021/05/18 10:54:05;;;;;;;4.18;3.33;;;;;;;19.22;nan;100571.91;5021447;28;20431;-79
2021/05/18 10:56:57;;;;;;;3.42;3.13;;;;;;;19.58;nan;100570.09;5018552;28;20119;-79
2021/05/18 10:59:28;;;;;;;5.55;3.00;;;;;;;19.83;nan;100575.94;5010312;28;20033;-79
2021/05/18 11:01:58;;;;;;;3.72;3.33;;;;;;;19.88;nan;100579.75;4977950;28;20363;-79
2021/05/18 11:04:25;;;;;;;4.07;3.60;;;;;;;19.42;nan;100582.13;5028185;28;20057;-80
2021/05/18 11:06:52;;;;;;;4.40;3.83;;;;;;;19.39;nan;100583.38;5028421;28;20029;-80
2021/05/18 11:09:18;;;;;;;7.45;4.05;;;;;;;19.76;nan;100581.38;5028928;28;20065;-79
2021/05/18 11:11:46;;;;;;;4.30;3.90;;;;;;;20.02;nan;100579.81;5029028;28;20032;-79
2021/05/18 11:14:12;;;;;;;5.43;3.42;;;;;;;20.09;nan;100580.72;5010136;28;20025;-79
2021/05/18 11:16:37;;;;;;;3.55;3.13;;;;;;;20.41;nan;100580.00;5009525;28;20034;-79
2021/05/18 11:19:12;;;;;;;5.85;4.13;;;;;;;20.21;nan;100584.56;5027608;28;20029;-80
2021/05/18 11:21:43;;;;;;;7.70;3.85;;;;;;;19.98;nan;100593.03;5009920;28;20036;-80
2021/05/18 11:24:12;;;;;;;4.25;3.45;;;;;;;19.75;nan;100598.78;5009861;28;20032;-80
2021/05/18 11:26:50;;;;;;;6.22;3.95;;;;;;;19.68;nan;100597.88;5027625;28;20070;-80
2021/05/18 11:29:36;;;;;;;4.75;3.10;;;;;;;19.50;nan;100595.63;5009706;28;20448;-79
2021/05/18 11:32:08;;;;;;;3.28;2.72;;;;;;;19.67;nan;100588.03;4997194;28;20108;-79
2021/05/18 11:34:33;;;;;;;3.17;2.67;;;;;;;19.73;nan;100593.50;5009295;28;20033;-79
2021/05/18 11:36:59;;;;;;;7.38;2.47;;;;;;;19.87;nan;100588.16;5027407;28;20029;-79
2021/05/18 11:39:28;;;;;;;2.85;2.63;;;;;;;19.39;nan;100593.44;5009792;28;20477;-79
2021/05/18 11:41:54;;;;;;;3.75;2.60;;;;;;;19.84;nan;100594.03;4995575;28;20056;-79
2021/05/18 11:44:19;;;;;;;3.35;3.05;;;;;;;19.93;nan;100599.13;5027427;28;20070;-79
2021/05/18 11:46:47;;;;;;;6.90;2.85;;;;;;;20.26;nan;100595.69;5027152;28;20439;-79
2021/05/18 11:49:14;;;;;;;3.28;3.00;;;;;;;20.99;nan;100595.97;5027231;28;20044;-79
2021/05/18 11:51:42;;;;;;;4.10;2.40;;;;;;;20.92;nan;100594.28;5027603;28;20186;-79
2021/05/18 11:54:08;;;;;;;4.35;2.33;;;;;;;21.33;nan;100596.84;5023849;28;20029;-79
2021/05/18 11:56:35;;;;;;;6.03;2.28;;;;;;;21.47;nan;100590.38;5027059;28;20043;-79
2021/05/18 11:59:06;;;;;;;3.83;2.15;;;;;;;21.51;nan;100588.06;5008693;28;20396;-80
2021/05/18 12:01:33;;;;;;;;;;;;;;;21.66;nan;100587.84;5009359;28;20515;-79
2021/05/18 12:04:13;;;;;;;2.63;2.40;;;;;;;21.17;nan;100609.06;5026792;28;19921;-79
2021/05/18 12:06:52;;;;;;;4.88;2.35;;;;;;;20.88;nan;100597.44;5010212;28;20557;-79
2021/05/18 12:09:17;;;;;;;1.88;1.73;;;;;;;20.55;nan;100602.81;5026020;28;20033;-80
2021/05/18 12:11:43;;;;;;;3.05;2.28;;;;;;;20.45;nan;100605.06;5026593;28;20030;-79
2021/05/18 12:14:09;;;;;;;5.28;2.22;;;;;;;20.40;nan;100607.56;5026620;28;20033;-79
2021/05/18 12:16:41;;;;;;;2.50;2.17;;;;;;;20.77;nan;100605.41;5026886;28;20029;-79
2021/05/18 12:19:10;;;;;;;2.28;2.08;;;;;;;21.02;nan;100608.41;5008370;28;20111;-79
2021/05/18 12:21:36;;;;;;;2.00;1.80;;;;;;;20.96;nan;100609.22;5008920;28;20120;-80
2021/05/18 12:24:19;;;;;;;3.60;1.90;;;;;;;21.32;nan;100614.34;5027315;28;20818;-80
2021/05/18 12:27:02;;;;;;;3.45;2.30;;;;;;;20.95;nan;100621.22;5026830;28;20040;-79
2021/05/18 12:29:34;;;;;;;4.43;2.97;;;;;;;20.48;nan;100620.19;5026531;28;20363;-79
2021/05/18 12:32:22;;;;;;;3.88;2.80;;;;;;;20.27;nan;100619.25;4995950;28;20029;-79
2021/05/18 12:34:53;;;;;;;4.32;2.33;;;;;;;20.07;nan;100627.31;5010845;28;20067;-79
2021/05/18 12:37:37;;;;;;;2.70;2.00;;;;;;;20.37;nan;100621.63;5027011;28;20033;-79
2021/05/18 12:40:26;;;;;;;3.40;1.80;;;;;;;20.47;nan;100627.53;4969316;28;20038;-79
2021/05/18 12:42:53;;;;;;;2.58;2.38;;;;;;;20.26;nan;100628.47;4992222;28;20107;-80
2021/05/18 12:45:21;;;;;;;4.95;3.70;;;;;;;20.16;nan;100628.84;5027686;28;20505;-79
2021/05/18 12:47:59;;;;;;;4.80;3.88;;;;;;;20.27;nan;100635.66;5026313;28;20044;-79
2021/05/18 12:50:39;;;;;;;6.07;4.00;;;;;;;20.11;nan;100641.41;5008405;28;20034;-79
2021/05/18 12:53:06;;;;;;;5.25;4.45;;;;;;;20.17;nan;100643.34;5025548;28;20509;-79
2021/05/18 12:55:32;;;;;;;4.03;3.65;;;;;;;19.92;nan;100642.97;4988764;28;20694;-79
2021/05/18 12:58:02;;;;;;;5.50;4.53;;;;;;;20.03;nan;100639.69;5011548;28;20486;-79
2021/05/18 13:00:35;;;;;;;8.38;4.38;;;;;;;19.82;nan;100645.22;5007818;28;20037;-80
2021/05/18 13:03:15;;;;;;;6.90;4.40;;;;;;;20.13;nan;100650.25;5008544;28;20560;-80
2021/05/18 13:05:45;;;;;;;7.28;4.78;;;;;;;20.54;nan;100653.03;5025498;28;20533;-79
2021/05/18 13:08:11;;;;;;;6.30;3.88;;;;;;;20.30;nan;100650.78;5008143;28;20025;-79
2021/05/18 13:11:05;;;;;;;5.28;3.90;;;;;;;19.77;nan;100650.41;5008239;28;20108;-79
2021/05/18 13:13:37;;;;;;;5.15;3.65;;;;;;;20.07;nan;100649.16;5026293;28;20029;-79
2021/05/18 13:16:23;;;;;;;9.93;4.57;;;;;;;20.92;nan;100649.81;5007959;28;20068;-79
2021/05/18 13:18:59;;;;;;;6.78;3.90;;;;;;;19.80;nan;100650.03;5026182;28;20498;-79
2021/05/18 13:21:35;;;;;;;4.00;3.60;;;;;;;20.61;nan;100662.09;4999887;28;20042;-79
2021/05/18 13:26:29;;;;;;;4.85;3.55;;;;;;;20.27;nan;100648.47;5029945;28;20033;-80
2021/05/18 13:29:08;;;;;;;4.50;3.72;;;;;;;20.14;nan;100646.47;5011445;28;20029;-80
2021/05/18 13:31:36;;;;;;;4.90;3.80;;;;;;;20.89;nan;100651.06;5012318;28;20033;-79
2021/05/18 13:34:02;;;;;;;3.83;3.40;;;;;;;20.67;nan;100657.72;5012979;28;20028;-79
2021/05/18 13:36:32;;;;;;;4.75;4.25;;;;;;;20.75;nan;100651.22;5012088;28;20481;-80
2021/05/18 13:38:57;;;;;;;8.20;4.40;;;;;;;20.89;nan;100642.03;5011667;28;20041;-80
2021/05/18 13:41:23;;;;;;;7.40;4.63;;;;;;;21.17;nan;100646.50;5029898;28;20029;-79
2021/05/18 13:43:48;;;;;;;9.27;3.40;;;;;;;20.88;nan;100646.66;5033874;28;20021;-80
2021/05/18 13:46:13;;;;;;;4.10;3.70;;;;;;;20.86;nan;100642.44;5029141;28;20036;-79
2021/05/18 13:48:39;;;;;;;11.05;3.65;;;;;;;20.35;nan;100642.81;5029293;28;20501;-79
2021/05/18 13:51:05;;;;;;;6.53;4.40;;;;;;;20.21;nan;100652.84;5029738;28;20601;-80
2021/05/18 13:53:30;;;;;;;4.85;4.00;;;;;;;19.90;nan;100647.81;5026375;28;20022;-79
2021/05/18 13:55:55;;;;;;;5.03;4.50;;;;;;;20.35;nan;100642.81;5029112;28;20075;-79
2021/05/18 13:58:20;;;;;;;4.30;3.92;;;;;;;20.67;nan;100645.94;5029553;28;20381;-79
2021/05/18 14:00:46;;;;;;;3.90;3.50;;;;;;;21.35;nan;100646.75;5010852;28;20025;-79
2021/05/18 14:03:11;;;;;;;3.88;3.42;;;;;;;21.69;nan;100648.47;5011055;28;20097;-80
2021/05/18 14:05:36;;;;;;;5.78;3.58;;;;;;;22.73;nan;100665.13;5011425;28;20111;-79
2021/05/18 14:10:29;;;;;;;6.03;3.67;;;;;;;22.24;nan;100656.44;5029554;28;20103;-80
2021/05/18 14:12:55;;;;;;;5.88;3.67;;;;;;;21.89;nan;100650.38;5030545;28;20033;-80
2021/05/18 14:15:20;;;;;;;5.28;4.75;;;;;;;22.90;nan;100645.22;5029287;28;20381;-80
2021/05/18 14:17:45;;;;;;;5.75;3.35;;;;;;;23.50;nan;100652.22;5011789;28;20040;-80
2021/05/18 14:20:11;;;;;;;4.47;3.30;;;;;;;22.98;nan;100659.75;5010760;28;20033;-82
2021/05/18 14:22:37;;;;;;;3.80;3.38;;;;;;;23.83;nan;100649.22;5028981;28;20448;-80
2021/05/18 14:25:06;;;;;;;4.40;3.28;;;;;;;24.66;nan;100657.03;5028597;28;20071;-80
2021/05/18 14:27:33;;;;;;;3.58;2.63;;;;;;;24.75;nan;100661.13;5010827;28;20029;-80
2021/05/18 14:29:59;;;;;;;3.03;2.58;;;;;;;24.86;nan;100650.44;5028772;28;20029;-80
2021/05/18 14:32:24;;;;;;;2.92;2.42;;;;;;;24.15;nan;100660.13;5010929;28;20029;-80
2021/05/18 14:34:52;;;;;;;3.88;2.70;;;;;;;23.23;nan;100663.38;5013701;28;20562;-80
2021/05/18 14:37:17;;;;;;;6.20;3.20;;;;;;;22.70;nan;100655.41;5010696;28;20025;-79
2021/05/18 14:45:13;;;;;;;3.30;3.00;;;;;;;21.91;nan;100656.44;5028579;28;20036;-79
2021/05/18 14:55:51;;;;;;;3.67;3.35;;;;;;;21.47;nan;100645.09;5027727;28;20036;-79
2021/05/18 14:58:16;;;;;;;5.53;3.55;;;;;;;21.48;nan;100640.47;5028325;28;20045;-79
2021/05/18 15:00:42;;;;;;;4.68;3.08;;;;;;;20.79;nan;100647.88;5027842;28;20044;-79
2021/05/18 15:03:09;;;;;;;4.28;2.70;;;;;;;21.21;nan;100654.09;5027700;28;20037;-79
2021/05/18 15:05:34;;;;;;;3.67;2.40;;;;;;;21.23;nan;100653.88;5028179;28;20030;-79
2021/05/18 15:08:00;;;;;;;3.10;2.63;;;;;;;20.93;nan;100648.75;5010645;28;20023;-80
2021/05/18 15:10:27;;;;;;;6.47;2.70;;;;;;;20.63;nan;100654.56;5028569;28;20068;-79
2021/05/18 15:12:52;;;;;;;4.63;3.13;;;;;;;20.90;nan;100651.91;5028013;28;20030;-79
2021/05/18 15:15:17;;;;;;;3.40;3.10;;;;;;;21.08;nan;100659.53;5010409;28;20043;-79
2021/05/18 15:17:43;;;;;;;3.33;3.00;;;;;;;21.54;nan;100651.41;5027109;28;20033;-78
2021/05/18 15:20:09;;;;;;;3.20;2.90;;;;;;;21.56;nan;100663.00;5027692;28;20041;-79
2021/05/18 15:22:35;;;;;;;4.40;3.00;;;;;;;21.74;nan;100653.31;5026850;28;20036;-79
2021/05/18 15:25:00;;;;;;;3.08;2.83;;;;;;;22.31;nan;100653.66;5025981;28;20330;-79
2021/05/18 15:27:26;;;;;;;4.13;2.65;;;;;;;23.05;nan;100653.19;5025865;28;20418;-79
2021/05/18 15:29:53;;;;;;;6.97;3.35;;;;;;;22.79;nan;100664.25;5025975;28;20018;-79
2021/05/18 15:32:19;;;;;;;3.95;3.08;;;;;;;24.47;nan;100649.88;5009004;28;20040;-79
2021/05/18 15:34:44;;;;;;;2.70;2.50;;;;;;;26.19;nan;100668.47;5025881;28;20025;-79
2021/05/18 15:37:10;;;;;;;3.67;2.05;;;;;;;26.26;nan;100657.28;5025944;28;20043;-79
2021/05/18 15:39:36;;;;;;;5.32;2.33;;;;;;;24.13;nan;100674.09;5027037;28;20041;-79
2021/05/18 15:42:02;;;;;;;2.67;1.90;;;;;;;23.19;nan;100661.31;5009396;28;20025;-79
2021/05/18 15:44:27;;;;;;;3.17;1.98;;;;;;;22.25;nan;100656.22;5026384;28;20037;-79
2021/05/18 15:46:53;;;;;;;3.80;2.30;;;;;;;21.84;nan;100663.84;5026323;28;20643;-78
2021/05/18 15:49:18;;;;;;;2.88;2.28;;;;;;;20.86;nan;100662.41;5026658;28;20057;-79
2021/05/18 15:51:44;;;;;;;2.78;2.20;;;;;;;21.26;nan;100670.72;5009701;28;20071;-79
2021/05/18 15:54:09;;;;;;;3.33;2.03;;;;;;;21.36;nan;100670.34;5009777;28;20439;-78
2021/05/18 15:56:35;;;;;;;3.20;2.20;;;;;;;20.94;nan;100672.31;5009087;28;20091;-78
2021/05/18 15:59:01;;;;;;;2.55;1.92;;;;;;;20.95;nan;100676.75;5026891;28;20112;-79
2021/05/18 16:01:26;;;;;;;3.83;2.00;;;;;;;20.91;nan;100669.13;5026900;28;20029;-79
2021/05/18 16:03:52;;;;;;;3.05;2.35;;;;;;;20.66;nan;100680.59;5026831;28;20029;-78
2021/05/18 16:06:23;;;;;;;2.50;2.30;;;;;;;20.49;39.30;100680.09;5091073;27;20359;-79
2021/05/18 16:11:15;;;;;;;2.72;2.10;;;;;;;20.39;39.44;100675.00;5098710;28;20052;-79
2021/05/18 16:13:41;;;;;;;4.60;2.50;;;;;;;20.23;40.17;100688.13;5102982;28;20023;-80
2021/05/18 16:16:13;;;;;;;2.97;2.05;;;;;;;20.18;39.91;100689.56;5089212;28;20484;-79
2021/05/18 16:18:39;;;;;;;;;;;;;;;20.34;39.32;100695.75;5093802;28;20067;-79
2021/05/18 16:21:06;;;;;;;3.63;2.03;;;;;;;20.41;38.78;100699.38;5095658;28;20303;-79
2021/05/18 16:23:33;;;;;;;1.77;1.67;;;;;;;20.11;38.83;100682.38;5086451;28;20036;-79
2021/05/18 16:25:59;;;;;;;2.10;1.90;;;;;;;20.09;39.18;100693.50;5100218;28;20035;-79
2021/05/18 16:28:24;;;;;;;2.15;1.40;;;;;;;19.60;40.60;100688.03;5090951;28;20028;-80
2021/05/18 16:30:50;;;;;;;2.00;1.80;;;;;;;20.46;39.28;100696.88;5092163;28;20020;-79
2021/05/18 16:33:16;;;;;;;2.22;1.88;;;;;;;20.39;38.62;100706.94;5097655;28;20041;-79
2021/05/18 16:35:42;;;;;;;2.03;1.83;;;;;;;20.34;38.62;100693.88;5067152;28;20043;-79
2021/05/18 16:38:08;;;;;;;3.17;2.10;;;;;;;20.25;39.25;100706.00;5078438;28;20020;-78
2021/05/18 16:40:33;;;;;;;2.97;2.67;;;;;;;19.48;41.21;100695.91;5091254;28;20100;-79
2021/05/18 16:42:59;;;;;;;4.32;2.65;;;;;;;19.68;41.52;100696.09;5071484;28;20593;-79
2021/05/18 16:45:24;;;;;;;5.10;3.50;;;;;;;19.77;41.46;100691.34;5098881;28;20058;-79
2021/05/18 16:47:49;;;;;;;3.63;3.10;;;;;;;19.83;41.71;100696.03;5069689;28;20016;-79
2021/05/18 16:50:15;;;;;;;4.03;3.30;;;;;;;20.16;40.75;100699.00;5096015;28;20413;-79
2021/05/18 16:52:41;;;;;;;5.85;3.17;;;;;;;20.42;40.07;100698.34;5063359;28;20039;-79
2021/05/18 16:55:08;;;;;;;5.20;3.67;;;;;;;20.32;40.54;100690.47;5063535;28;20603;-78
2021/05/18 16:57:33;;;;;;;5.65;3.83;;;;;;;20.57;40.06;100700.94;5080341;28;20034;-78